createdAt,value
2022-11-05T00:01:21.613Z,8.99
2022-11-05T00:04:09.524Z,8.98
2022-11-05T00:06:57.171Z,8.97
2022-11-05T00:09:30.726Z,8.95
2022-11-05T00:12:20.864Z,8.94
2022-11-05T00:15:09.517Z,8.94
2022-11-05T00:17:40.753Z,8.93
2022-11-05T00:20:14.076Z,8.94
2022-11-05T00:23:02.365Z,8.94
2022-11-05T00:25:32.923Z,8.94
2022-11-05T00:28:05.352Z,8.94
2022-11-05T00:30:35.825Z,8.92
2022-11-05T00:33:06.199Z,8.91
2022-11-05T00:35:36.514Z,8.92
2022-11-05T00:38:06.825Z,8.92
2022-11-05T00:40:37.541Z,8.92
2022-11-05T00:43:25.325Z,8.91
2022-11-05T00:45:55.648Z,8.91
2022-11-05T00:48:43.638Z,8.89
2022-11-05T00:51:14.110Z,8.87
2022-11-05T00:53:44.569Z,8.85
2022-11-05T00:56:15.024Z,8.82
2022-11-05T00:58:45.451Z,8.80
2022-11-05T01:01:15.888Z,8.78
2022-11-05T01:03:51.459Z,8.76
2022-11-05T01:06:22.403Z,8.74
2022-11-05T01:08:52.840Z,8.72
2022-11-05T01:11:33.997Z,8.70
2022-11-05T01:14:07.665Z,8.68
2022-11-05T01:16:39.211Z,8.67
2022-11-05T01:19:11.657Z,8.66
2022-11-05T01:21:42.064Z,8.64
2022-11-05T01:24:13.656Z,8.64
2022-11-05T01:26:44.028Z,8.62
2022-11-05T01:29:14.610Z,8.62
2022-11-05T01:31:45.319Z,8.60
2022-11-05T01:34:15.694Z,8.59
2022-11-05T01:36:46.070Z,8.59
2022-11-05T01:39:16.799Z,8.58
2022-11-05T01:41:47.190Z,8.58
2022-11-05T01:44:52.497Z,8.57
2022-11-05T01:47:37.508Z,8.56
2022-11-05T01:50:27.716Z,8.54
2022-11-05T01:53:03.655Z,8.53
2022-11-05T01:55:38.103Z,8.52
2022-11-05T01:58:12.748Z,8.52
2022-11-05T02:00:43.859Z,8.52
2022-11-05T02:03:16.087Z,8.52
2022-11-05T02:05:49.136Z,8.52
2022-11-05T02:08:26.997Z,8.51
2022-11-05T02:10:58.825Z,8.51
2022-11-05T02:13:29.127Z,8.51
2022-11-05T02:16:08.249Z,8.50
2022-11-05T02:18:50.669Z,8.50
2022-11-05T02:21:51.932Z,8.51
2022-11-05T02:24:42.772Z,8.52
2022-11-05T02:27:22.619Z,8.51
2022-11-05T02:30:10.574Z,8.50
2022-11-05T02:33:05.120Z,8.47
2022-11-05T02:35:52.618Z,8.47
2022-11-05T02:38:36.425Z,8.46
2022-11-05T02:41:15.005Z,8.45
2022-11-05T02:43:56.526Z,8.45
2022-11-05T02:46:32.506Z,8.43
2022-11-05T02:49:10.378Z,8.43
2022-11-05T02:51:49.341Z,8.41
2022-11-05T02:54:26.468Z,8.40
2022-11-05T02:57:00.253Z,8.40
2022-11-05T02:59:30.593Z,8.40
2022-11-05T03:02:03.979Z,8.41
2022-11-05T03:04:34.667Z,8.41
2022-11-05T03:07:23.615Z,8.40
2022-11-05T03:10:10.383Z,8.40
2022-11-05T03:12:53.069Z,8.41
2022-11-05T03:15:35.081Z,8.40
2022-11-05T03:18:14.753Z,8.39
2022-11-05T03:20:51.452Z,8.38
2022-11-05T03:23:30.481Z,8.38
2022-11-05T03:26:08.288Z,8.39
2022-11-05T03:28:42.730Z,8.38
2022-11-05T03:31:16.960Z,8.38
2022-11-05T03:33:49.702Z,8.38
2022-11-05T03:36:25.301Z,8.37
2022-11-05T03:38:58.329Z,8.36
2022-11-05T03:41:30.668Z,8.36
2022-11-05T03:44:06.299Z,8.34
2022-11-05T03:46:41.588Z,8.33
2022-11-05T03:49:19.249Z,8.33
2022-11-05T03:51:56.023Z,8.32
2022-11-05T03:54:26.595Z,8.31
2022-11-05T03:57:07.307Z,8.30
2022-11-05T03:59:45.080Z,8.29
2022-11-05T04:02:19.042Z,8.30
2022-11-05T04:04:49.870Z,8.29
2022-11-05T04:07:37.877Z,8.29
2022-11-05T04:10:26.463Z,8.30
2022-11-05T04:13:14.756Z,8.31
2022-11-05T04:15:58.979Z,8.31
2022-11-05T04:18:29.340Z,8.32
2022-11-05T04:21:17.154Z,8.32
2022-11-05T04:24:16.686Z,8.31
2022-11-05T04:26:47.475Z,8.31
2022-11-05T04:29:35.660Z,8.31
2022-11-05T04:32:06.553Z,8.31
2022-11-05T04:34:37.006Z,8.30
2022-11-05T04:37:07.661Z,8.29
2022-11-05T04:39:38.004Z,8.29
2022-11-05T04:42:08.744Z,8.28
2022-11-05T04:44:39.537Z,8.28
2022-11-05T04:47:09.904Z,8.28
2022-11-05T04:49:40.225Z,8.27
2022-11-05T04:52:10.540Z,8.25
2022-11-05T04:54:41.208Z,8.21
2022-11-05T04:57:11.750Z,8.15
2022-11-05T04:59:42.182Z,8.11
2022-11-05T05:02:12.682Z,8.09
2022-11-05T05:04:43.072Z,8.05
2022-11-05T05:07:13.672Z,8.01
2022-11-05T05:09:44.128Z,7.98
2022-11-05T05:12:14.549Z,7.96
2022-11-05T05:14:44.928Z,7.94
2022-11-05T05:17:15.351Z,7.92
2022-11-05T05:20:05.727Z,7.91
2022-11-05T05:22:34.649Z,7.90
2022-11-05T05:25:03.835Z,7.90
2022-11-05T05:27:33.086Z,7.90
2022-11-05T05:30:02.194Z,7.89
2022-11-05T05:32:31.047Z,7.88
2022-11-05T05:34:59.901Z,7.86
2022-11-05T05:37:28.791Z,7.82
2022-11-05T05:39:57.599Z,7.80
2022-11-05T05:42:26.845Z,7.78
2022-11-05T05:44:55.642Z,7.76
2022-11-05T05:47:24.545Z,7.74
2022-11-05T05:49:53.590Z,7.73
2022-11-05T05:52:22.373Z,7.73
2022-11-05T05:54:51.443Z,7.70
2022-11-05T05:57:20.360Z,7.69
2022-11-05T05:59:49.216Z,7.68
2022-11-05T06:02:18.137Z,7.66
2022-11-05T06:04:47.052Z,7.65
2022-11-05T06:07:15.840Z,7.64
2022-11-05T06:09:44.682Z,7.62
2022-11-05T06:12:13.496Z,7.61
2022-11-05T06:14:42.445Z,7.59
2022-11-05T06:17:11.585Z,7.58
2022-11-05T06:19:40.399Z,7.58
2022-11-05T06:22:09.316Z,7.57
2022-11-05T06:24:38.140Z,7.55
2022-11-05T06:27:07.007Z,7.54
2022-11-05T06:29:35.896Z,7.52
2022-11-05T06:32:04.814Z,7.51
2022-11-05T06:34:33.698Z,7.49
2022-11-05T06:37:02.508Z,7.49
2022-11-05T06:39:31.469Z,7.48
2022-11-05T06:44:49.171Z,7.48
2022-11-05T06:47:18.014Z,7.47
2022-11-05T06:49:47.256Z,7.47
2022-11-05T06:52:16.358Z,7.48
2022-11-05T06:54:45.193Z,7.48
2022-11-05T06:57:14.086Z,7.50
2022-11-05T06:59:42.947Z,7.51
2022-11-05T07:02:12.895Z,7.52
2022-11-05T07:04:41.895Z,7.52
2022-11-05T07:07:10.686Z,7.51
2022-11-05T07:09:43.105Z,7.52
2022-11-05T07:12:12.056Z,7.53
2022-11-05T07:14:41.776Z,7.55
2022-11-05T07:21:19.176Z,7.60
2022-11-05T07:23:48.402Z,7.62
2022-11-05T07:26:17.322Z,7.64
2022-11-05T07:28:46.158Z,7.65
2022-11-05T07:31:14.990Z,7.65
2022-11-05T07:33:43.883Z,7.66
2022-11-05T07:36:12.871Z,7.67
2022-11-05T07:42:08.127Z,7.68
2022-11-05T07:44:41.914Z,7.70
2022-11-05T07:47:10.892Z,7.71
2022-11-05T07:49:39.626Z,7.72
2022-11-05T07:52:08.617Z,7.74
2022-11-05T07:54:37.489Z,7.75
2022-11-05T07:57:06.359Z,7.76
2022-11-05T07:59:35.272Z,7.77
2022-11-05T08:02:04.350Z,7.78
2022-11-05T08:04:33.422Z,7.80
2022-11-05T08:07:02.329Z,7.81
2022-11-05T08:09:31.280Z,7.85
2022-11-05T08:12:03.158Z,7.89
2022-11-05T08:14:32.387Z,7.92
2022-11-05T08:17:01.300Z,7.94
2022-11-05T08:19:30.401Z,7.93
2022-11-05T08:21:59.268Z,7.95
2022-11-05T08:24:28.104Z,7.96
2022-11-05T08:26:58.035Z,7.98
2022-11-05T08:29:26.915Z,7.98
2022-11-05T08:31:55.665Z,7.99
2022-11-05T08:34:24.685Z,8.01
2022-11-05T08:36:53.599Z,8.05
2022-11-05T08:39:23.230Z,8.10
2022-11-05T08:41:52.111Z,8.16
2022-11-05T08:44:20.932Z,8.23
2022-11-05T08:46:49.837Z,8.29
2022-11-05T08:49:18.865Z,8.36
2022-11-05T08:51:48.064Z,8.41
2022-11-05T08:54:16.896Z,8.45
2022-11-05T08:56:45.795Z,8.48
2022-11-05T08:59:14.778Z,8.52
2022-11-05T09:01:43.719Z,8.55
2022-11-05T09:04:12.824Z,8.58
2022-11-05T09:06:41.750Z,8.59
2022-11-05T09:09:10.623Z,8.60
2022-11-05T09:12:05.713Z,8.64
2022-11-05T09:14:30.010Z,8.67
2022-11-05T09:16:58.816Z,8.69
2022-11-05T09:19:27.685Z,8.73
2022-11-05T09:21:59.678Z,8.79
2022-11-05T09:24:28.607Z,8.88
2022-11-05T09:26:57.396Z,8.93
2022-11-05T09:29:26.213Z,9.01
2022-11-05T09:31:55.035Z,9.09
2022-11-05T09:34:24.459Z,9.22
2022-11-05T09:36:53.470Z,9.36
2022-11-05T09:39:22.343Z,9.43
2022-11-05T09:41:52.838Z,9.45
2022-11-05T09:44:23.578Z,9.45
2022-11-05T09:46:55.181Z,9.44
2022-11-05T09:49:27.328Z,9.40
2022-11-05T09:51:58.360Z,9.40
2022-11-05T09:54:31.530Z,9.39
2022-11-05T09:57:02.386Z,9.39
2022-11-05T09:59:36.149Z,9.36
2022-11-05T10:02:10.890Z,9.37
2022-11-05T10:04:40.700Z,9.38
2022-11-05T10:07:12.449Z,9.36
2022-11-05T10:09:47.243Z,9.32
2022-11-05T10:12:20.820Z,9.29
2022-11-05T10:14:51.256Z,9.27
2022-11-05T10:17:24.271Z,9.26
2022-11-05T10:19:56.021Z,9.27
2022-11-05T10:22:25.894Z,9.31
2022-11-05T10:24:55.886Z,9.35
2022-11-05T10:27:30.105Z,9.42
2022-11-05T10:29:58.909Z,9.50
2022-11-05T10:32:29.564Z,9.56
2022-11-05T10:35:00.007Z,9.61
2022-11-05T10:37:29.870Z,9.69
2022-11-05T10:39:58.903Z,9.80
2022-11-05T10:42:34.886Z,9.85
2022-11-05T10:45:08.950Z,9.90
2022-11-05T10:47:44.632Z,9.95
2022-11-05T10:50:14.471Z,10.01
2022-11-05T10:52:50.202Z,10.06
2022-11-05T10:55:22.041Z,10.12
2022-11-05T10:57:51.414Z,10.22
2022-11-05T11:00:21.641Z,10.32
2022-11-05T11:02:51.342Z,10.39
2022-11-05T11:05:23.024Z,10.49
2022-11-05T11:07:57.521Z,10.53
2022-11-05T11:10:27.099Z,10.54
2022-11-05T11:12:56.395Z,10.51
2022-11-05T11:15:27.464Z,10.47
2022-11-05T11:17:56.782Z,10.46
2022-11-05T11:20:27.867Z,10.46
2022-11-05T11:23:04.213Z,10.50
2022-11-05T11:25:38.778Z,10.55
2022-11-05T11:28:11.976Z,10.60
2022-11-05T11:30:40.882Z,10.62
2022-11-05T11:33:10.505Z,10.63
2022-11-05T11:35:39.868Z,10.64
2022-11-05T11:38:15.579Z,10.63
2022-11-05T11:40:44.856Z,10.59
2022-11-05T11:43:21.614Z,10.51
2022-11-05T11:45:52.401Z,10.48
2022-11-05T11:48:26.420Z,10.51
2022-11-05T11:50:56.006Z,10.59
2022-11-05T11:53:28.018Z,10.73
2022-11-05T11:56:01.678Z,10.87
2022-11-05T11:58:41.959Z,10.95
2022-11-05T12:01:26.044Z,11.02
2022-11-05T12:04:00.504Z,11.06
2022-11-05T12:06:32.984Z,11.05
2022-11-05T12:09:07.106Z,11.07
2022-11-05T12:11:40.303Z,11.08
2022-11-05T12:14:18.708Z,11.05
2022-11-05T12:17:00.327Z,10.98
2022-11-05T12:19:42.110Z,10.87
2022-11-05T12:22:20.113Z,10.82
2022-11-05T12:24:56.477Z,10.84
2022-11-05T12:27:34.428Z,10.93
2022-11-05T12:30:06.103Z,11.12
2022-11-05T12:33:00.578Z,11.19
2022-11-05T12:35:45.750Z,11.41
2022-11-05T12:38:22.802Z,11.85
2022-11-05T12:40:58.505Z,12.27
2022-11-05T12:43:33.858Z,12.92
2022-11-05T12:46:05.217Z,13.58
2022-11-05T12:48:43.333Z,14.07
2022-11-05T12:51:19.255Z,14.35
2022-11-05T12:53:52.963Z,14.43
2022-11-05T12:56:26.296Z,14.50
2022-11-05T12:58:59.669Z,14.36
2022-11-05T13:01:33.158Z,14.10
2022-11-05T13:04:06.699Z,13.85
2022-11-05T13:06:39.706Z,13.55
2022-11-05T13:09:12.302Z,13.23
2022-11-05T13:11:45.154Z,12.86
2022-11-05T13:14:15.645Z,12.58
2022-11-05T13:16:47.322Z,12.32
2022-11-05T13:19:18.595Z,12.13
2022-11-05T13:21:51.017Z,11.98
2022-11-05T13:24:21.557Z,11.84
2022-11-05T13:26:53.712Z,11.70
2022-11-05T13:29:26.428Z,11.58
2022-11-05T13:31:58.886Z,11.49
2022-11-05T13:34:27.778Z,11.40
2022-11-05T13:37:16.197Z,11.31
2022-11-05T13:39:47.728Z,11.22
2022-11-05T13:42:38.118Z,11.14
2022-11-05T13:45:22.411Z,11.08
2022-11-05T13:47:56.940Z,11.03
2022-11-05T13:50:46.082Z,10.97
2022-11-05T13:53:35.765Z,10.90
2022-11-05T13:56:11.082Z,10.82
2022-11-05T13:58:48.385Z,10.72
2022-11-05T14:01:22.783Z,10.54
2022-11-05T14:03:52.565Z,10.32
2022-11-05T14:06:26.197Z,10.11
2022-11-05T14:08:57.631Z,9.95
2022-11-05T14:11:28.159Z,9.82
2022-11-05T14:13:58.179Z,9.72
2022-11-05T14:16:29.462Z,9.64
2022-11-05T14:19:23.383Z,9.58
2022-11-05T14:21:53.237Z,9.54
2022-11-05T14:24:39.775Z,9.52
2022-11-05T14:27:25.821Z,9.51
2022-11-05T14:29:54.777Z,9.49
2022-11-05T14:32:26.926Z,9.48
2022-11-05T14:34:57.310Z,9.49
2022-11-05T14:37:28.011Z,9.53
2022-11-05T14:39:57.408Z,9.59
2022-11-05T14:42:30.466Z,9.68
2022-11-05T14:45:01.940Z,9.73
2022-11-05T14:47:32.728Z,9.75
2022-11-05T14:50:04.516Z,9.78
2022-11-05T14:52:33.817Z,9.82
2022-11-05T14:55:03.662Z,9.88
2022-11-05T14:57:50.707Z,9.91
2022-11-05T15:00:36.516Z,9.94
2022-11-05T15:03:25.533Z,9.95
2022-11-05T15:06:04.167Z,9.89
2022-11-05T15:08:37.492Z,9.81
2022-11-05T15:11:12.455Z,9.74
2022-11-05T15:13:49.087Z,9.66
2022-11-05T15:16:20.636Z,9.58
2022-11-05T15:18:49.721Z,9.53
2022-11-05T15:21:19.619Z,9.51
2022-11-05T15:23:49.731Z,9.49
2022-11-05T15:26:23.239Z,9.47
2022-11-05T15:28:52.728Z,9.44
2022-11-05T15:31:26.462Z,9.41
2022-11-05T15:34:10.596Z,9.40
2022-11-05T15:36:39.572Z,9.40
2022-11-05T15:39:29.557Z,9.40
2022-11-05T15:41:59.863Z,9.38
2022-11-05T15:44:30.055Z,9.34
2022-11-05T15:47:09.360Z,9.31
2022-11-05T15:49:38.373Z,9.27
2022-11-05T15:52:09.146Z,9.23
2022-11-05T15:54:38.339Z,9.20
2022-11-05T15:57:16.119Z,9.16
2022-11-05T16:03:00.746Z,9.03
2022-11-05T16:05:31.239Z,8.96
2022-11-05T16:08:00.698Z,8.89
2022-11-05T16:10:32.047Z,8.83
2022-11-05T16:13:14.581Z,8.76
2022-11-05T16:15:53.642Z,8.68
2022-11-05T16:18:24.415Z,8.61
2022-11-05T16:21:04.438Z,8.52
2022-11-05T16:23:44.330Z,8.41
2022-11-05T16:26:55.976Z,8.31
2022-11-05T16:29:17.499Z,8.20
2022-11-05T16:31:51.088Z,8.08
2022-11-05T16:34:25.701Z,7.99
2022-11-05T16:36:56.424Z,7.90
2022-11-05T16:39:25.458Z,7.80
2022-11-05T16:41:54.282Z,7.72
2022-11-05T16:44:23.082Z,7.64
2022-11-05T16:46:52.069Z,7.58
2022-11-05T16:49:21.712Z,7.53
2022-11-05T16:51:50.668Z,7.47
2022-11-05T16:54:19.456Z,7.41
2022-11-05T16:56:48.229Z,7.36
2022-11-05T16:59:17.217Z,7.31
2022-11-05T17:01:49.261Z,7.26
2022-11-05T17:04:20.524Z,7.22
2022-11-05T17:06:49.925Z,7.17
2022-11-05T17:09:18.925Z,7.13
2022-11-05T17:11:47.808Z,7.08
2022-11-05T17:14:16.809Z,7.02
2022-11-05T17:16:45.705Z,6.98
2022-11-05T17:19:16.396Z,6.92
2022-11-05T17:21:45.304Z,6.87
2022-11-05T17:24:14.052Z,6.82
2022-11-05T17:26:42.920Z,6.76
2022-11-05T17:29:11.699Z,6.70
2022-11-05T17:31:41.571Z,6.66
2022-11-05T17:34:11.244Z,6.61
2022-11-05T17:36:40.080Z,6.55
2022-11-05T17:39:10.877Z,6.48
2022-11-05T17:41:39.643Z,6.42
2022-11-05T17:44:10.275Z,6.35
2022-11-05T17:46:39.046Z,6.27
2022-11-05T17:49:08.016Z,6.21
2022-11-05T17:51:36.924Z,6.14
2022-11-05T17:54:07.647Z,6.08
2022-11-05T17:56:43.261Z,6.04
2022-11-05T17:59:13.228Z,6.02
2022-11-05T18:01:43.766Z,5.98
2022-11-05T18:04:13.439Z,5.96
2022-11-05T18:06:42.451Z,5.94
2022-11-05T18:09:11.681Z,5.91
2022-11-05T18:11:40.967Z,5.89
2022-11-05T18:14:09.779Z,5.87
2022-11-05T18:16:38.653Z,5.85
2022-11-05T18:19:07.426Z,5.85
2022-11-05T18:21:36.255Z,5.84
2022-11-05T18:24:05.512Z,5.83
2022-11-05T18:26:34.842Z,5.80
2022-11-05T18:29:04.734Z,5.77
2022-11-05T18:31:33.628Z,5.74
2022-11-05T18:34:02.470Z,5.71
2022-11-05T18:36:31.960Z,5.69
2022-11-05T18:39:02.227Z,5.66
2022-11-05T18:41:31.083Z,5.63
2022-11-05T18:44:03.414Z,5.60
2022-11-05T18:49:22.288Z,5.54
2022-11-05T18:51:51.357Z,5.53
2022-11-05T18:54:20.228Z,5.52
2022-11-05T18:56:49.027Z,5.49
2022-11-05T18:59:36.787Z,5.48
2022-11-05T19:02:07.022Z,5.46
2022-11-05T19:04:37.518Z,5.45
2022-11-05T19:07:07.320Z,5.42
2022-11-05T19:09:36.663Z,5.40
2022-11-05T19:12:07.083Z,5.39
2022-11-05T19:14:36.284Z,5.37
2022-11-05T19:17:05.154Z,5.37
2022-11-05T19:19:34.246Z,5.35
2022-11-05T19:22:06.026Z,5.33
2022-11-05T19:24:36.078Z,5.32
2022-11-05T19:27:05.103Z,5.32
2022-11-05T19:29:34.143Z,5.31
2022-11-05T19:32:03.711Z,5.30
2022-11-05T19:34:32.649Z,5.31
2022-11-05T19:37:01.723Z,5.30
2022-11-05T19:39:30.788Z,5.30
2022-11-05T19:42:04.018Z,5.29
2022-11-05T19:44:33.891Z,5.27
2022-11-05T19:47:02.698Z,5.26
2022-11-05T19:49:31.985Z,5.25
2022-11-05T19:52:00.929Z,5.23
2022-11-05T19:54:30.127Z,5.22
2022-11-05T19:56:59.747Z,5.20
2022-11-05T19:59:28.957Z,5.18
2022-11-05T20:01:58.042Z,5.16
2022-11-05T20:04:27.112Z,5.15
2022-11-05T20:06:56.042Z,5.12
2022-11-05T20:09:25.063Z,5.10
2022-11-05T20:11:54.949Z,5.08
2022-11-05T20:14:25.077Z,5.07
2022-11-05T20:16:54.447Z,5.05
2022-11-05T20:19:24.124Z,5.04
2022-11-05T20:21:53.353Z,5.02
2022-11-05T20:24:25.368Z,5.02
2022-11-05T20:26:56.189Z,5.00
2022-11-05T20:29:30.587Z,4.98
2022-11-05T20:32:04.089Z,4.96
2022-11-05T20:34:33.737Z,4.95
2022-11-05T20:37:02.756Z,4.94
2022-11-05T20:39:31.636Z,4.93
2022-11-05T20:42:01.376Z,4.90
2022-11-05T20:44:30.207Z,4.88
2022-11-05T20:46:59.144Z,4.87
2022-11-05T20:49:28.069Z,4.86
2022-11-05T20:51:57.620Z,4.85
2022-11-05T20:54:26.624Z,4.83
2022-11-05T20:56:55.723Z,4.82
2022-11-05T20:59:24.707Z,4.80
2022-11-05T21:01:54.034Z,4.78
2022-11-05T21:04:23.116Z,4.78
2022-11-05T21:06:53.302Z,4.76
2022-11-05T21:09:22.129Z,4.75
2022-11-05T21:12:09.020Z,4.74
2022-11-05T21:14:38.141Z,4.73
2022-11-05T21:17:07.652Z,4.72
2022-11-05T21:19:36.815Z,4.71
2022-11-05T21:22:06.608Z,4.71
2022-11-05T21:24:35.876Z,4.71
2022-11-05T21:27:05.293Z,4.71
2022-11-05T21:29:34.275Z,4.71
2022-11-05T21:32:03.195Z,4.71
2022-11-05T21:34:34.460Z,4.70
2022-11-05T21:37:03.336Z,4.70
2022-11-05T21:39:34.071Z,4.70
2022-11-05T21:42:03.151Z,4.70
2022-11-05T21:44:32.155Z,4.69
2022-11-05T21:47:01.089Z,4.70
2022-11-05T21:49:29.983Z,4.69
2022-11-05T21:52:16.545Z,4.70
2022-11-05T21:55:03.315Z,4.70
2022-11-05T21:57:50.272Z,4.70
2022-11-05T22:00:19.522Z,4.71
2022-11-05T22:02:48.803Z,4.73
2022-11-05T22:05:18.360Z,4.74
2022-11-05T22:07:47.370Z,4.76
2022-11-05T22:10:17.251Z,4.79
2022-11-05T22:12:46.633Z,4.81
2022-11-05T22:15:15.679Z,4.83
2022-11-05T22:17:47.176Z,4.83
2022-11-05T22:20:16.919Z,4.83
2022-11-05T22:22:45.802Z,4.84
2022-11-05T22:25:15.069Z,4.83
2022-11-05T22:27:44.652Z,4.83
2022-11-05T22:30:14.739Z,4.83
2022-11-05T22:32:43.705Z,4.83
2022-11-05T22:35:12.610Z,4.84
2022-11-05T22:37:41.592Z,4.85
2022-11-05T22:40:10.985Z,4.84
2022-11-05T22:42:39.929Z,4.84
2022-11-05T22:45:09.712Z,4.84
2022-11-05T22:47:38.637Z,4.85
2022-11-05T22:50:08.463Z,4.87
2022-11-05T22:52:37.390Z,4.87
2022-11-05T22:55:06.667Z,4.88
2022-11-05T22:57:35.564Z,4.89
2022-11-05T23:00:06.722Z,4.90
2022-11-05T23:02:35.879Z,4.92
2022-11-05T23:05:04.936Z,4.94
2022-11-05T23:07:51.451Z,4.94
2022-11-05T23:10:38.208Z,4.94
2022-11-05T23:13:07.939Z,4.93
2022-11-05T23:15:54.401Z,4.92
2022-11-05T23:18:40.958Z,4.91
2022-11-05T23:21:27.899Z,4.90
2022-11-05T23:24:05.442Z,4.91
2022-11-05T23:26:53.943Z,4.91
2022-11-05T23:29:23.883Z,4.88
2022-11-05T23:32:10.585Z,4.87
2022-11-05T23:34:39.601Z,4.86
2022-11-05T23:37:26.441Z,4.84
2022-11-05T23:39:55.396Z,4.83
2022-11-05T23:42:42.809Z,4.82
2022-11-05T23:45:29.971Z,4.81
2022-11-05T23:48:16.386Z,4.79
2022-11-05T23:50:46.836Z,4.77
2022-11-05T23:53:15.808Z,4.75
2022-11-05T23:55:44.909Z,4.73
2022-11-05T23:58:14.519Z,4.72
